createdAt,value
2023-05-05T00:01:03.445Z,8.78
2023-05-05T00:03:35.694Z,8.81
2023-05-05T00:06:05.690Z,8.85
2023-05-05T00:08:34.096Z,8.89
2023-05-05T00:11:02.095Z,8.93
2023-05-05T00:13:30.153Z,8.97
2023-05-05T00:15:58.225Z,9.01
2023-05-05T00:18:26.392Z,9.08
2023-05-05T00:20:54.461Z,9.13
2023-05-05T00:23:22.744Z,9.14
2023-05-05T00:25:51.324Z,9.17
2023-05-05T00:28:19.398Z,9.20
2023-05-05T00:30:47.526Z,9.23
2023-05-05T00:33:15.972Z,9.26
2023-05-05T00:35:44.129Z,9.26
2023-05-05T00:38:12.817Z,9.28
2023-05-05T00:40:41.195Z,9.32
2023-05-05T00:43:09.268Z,9.33
2023-05-05T00:45:39.284Z,9.31
2023-05-05T00:48:07.621Z,9.30
2023-05-05T00:50:37.473Z,9.28
2023-05-05T00:53:07.450Z,9.27
2023-05-05T00:55:36.803Z,9.21
2023-05-05T00:58:04.972Z,9.16
2023-05-05T01:00:33.655Z,9.12
2023-05-05T01:03:01.711Z,9.06
2023-05-05T01:05:38.162Z,9.05
2023-05-05T01:08:06.058Z,9.04
2023-05-05T01:10:51.950Z,8.99
2023-05-05T01:13:22.712Z,8.97
2023-05-05T01:15:57.149Z,8.96
2023-05-05T01:18:47.921Z,8.93
2023-05-05T01:21:29.456Z,8.86
2023-05-05T01:24:11.520Z,8.80
2023-05-05T01:27:12.030Z,8.74
2023-05-05T01:29:58.946Z,8.71
2023-05-05T01:32:28.693Z,8.65
2023-05-05T01:35:22.744Z,8.60
2023-05-05T01:38:08.852Z,8.57
2023-05-05T01:40:42.530Z,8.55
2023-05-05T01:43:13.582Z,8.52
2023-05-05T01:45:43.956Z,8.49
2023-05-05T01:48:15.140Z,8.45
2023-05-05T01:50:46.668Z,8.42
2023-05-05T01:53:17.665Z,8.40
2023-05-05T01:55:48.982Z,8.38
2023-05-05T01:58:18.420Z,8.36
2023-05-05T02:00:47.275Z,8.35
2023-05-05T02:03:17.451Z,8.34
2023-05-05T02:05:48.138Z,8.35
2023-05-05T02:08:17.081Z,8.38
2023-05-05T02:10:45.905Z,8.39
2023-05-05T02:13:15.648Z,8.39
2023-05-05T02:15:45.032Z,8.41
2023-05-05T02:18:14.749Z,8.42
2023-05-05T02:20:43.268Z,8.42
2023-05-05T02:23:11.753Z,8.45
2023-05-05T02:25:49.250Z,8.47
2023-05-05T02:28:26.778Z,8.47
2023-05-05T02:30:59.581Z,8.47
2023-05-05T02:33:33.098Z,8.43
2023-05-05T02:36:22.782Z,8.40
2023-05-05T02:38:58.988Z,8.38
2023-05-05T02:41:29.204Z,8.36
2023-05-05T02:43:59.722Z,8.35
2023-05-05T02:46:29.001Z,8.36
2023-05-05T02:48:59.738Z,8.37
2023-05-05T02:51:28.878Z,8.36
2023-05-05T02:53:58.922Z,8.36
2023-05-05T02:56:36.307Z,8.36
2023-05-05T02:59:36.758Z,8.39
2023-05-05T03:02:16.582Z,8.41
2023-05-05T03:04:54.979Z,8.45
2023-05-05T03:07:34.612Z,8.45
2023-05-05T03:10:09.884Z,8.43
2023-05-05T03:13:02.459Z,8.42
2023-05-05T03:15:51.662Z,8.38
2023-05-05T03:18:22.780Z,8.36
2023-05-05T03:20:57.271Z,8.33
2023-05-05T03:23:25.464Z,8.30
2023-05-05T03:25:57.323Z,8.27
2023-05-05T03:28:43.490Z,8.24
2023-05-05T03:31:28.590Z,8.20
2023-05-05T03:33:59.294Z,8.16
2023-05-05T03:36:30.434Z,8.12
2023-05-05T03:38:59.037Z,8.09
2023-05-05T03:41:28.424Z,8.07
2023-05-05T03:43:56.571Z,8.06
2023-05-05T03:46:25.785Z,8.06
2023-05-05T03:48:57.116Z,8.04
2023-05-05T03:51:25.830Z,8.05
2023-05-05T03:53:54.267Z,8.06
2023-05-05T03:56:23.506Z,8.09
2023-05-05T03:58:52.718Z,8.13
2023-05-05T04:01:20.876Z,8.15
2023-05-05T04:03:49.180Z,8.18
2023-05-05T04:06:17.437Z,8.16
2023-05-05T04:08:45.821Z,8.16
2023-05-05T04:11:13.893Z,8.18
2023-05-05T04:13:42.269Z,8.18
2023-05-05T04:16:10.487Z,8.18
2023-05-05T04:18:39.435Z,8.22
2023-05-05T04:21:07.718Z,8.27
2023-05-05T04:23:35.750Z,8.31
2023-05-05T04:26:03.779Z,8.30
2023-05-05T04:28:32.285Z,8.36
2023-05-05T04:31:01.341Z,8.42
2023-05-05T04:33:31.263Z,8.50
2023-05-05T04:35:59.763Z,8.53
2023-05-05T04:38:28.583Z,8.55
2023-05-05T04:40:57.199Z,8.59
2023-05-05T04:43:25.693Z,8.65
2023-05-05T04:45:57.034Z,8.71
2023-05-05T04:48:28.191Z,8.78
2023-05-05T04:50:56.238Z,8.86
2023-05-05T04:53:24.900Z,8.94
2023-05-05T04:55:53.417Z,8.94
2023-05-05T04:58:21.590Z,8.99
2023-05-05T05:00:49.762Z,9.06
2023-05-05T05:03:17.946Z,9.15
2023-05-05T05:05:46.209Z,9.24
2023-05-05T05:08:17.990Z,9.32
2023-05-05T05:10:46.154Z,9.39
2023-05-05T05:13:14.263Z,9.44
2023-05-05T05:15:42.551Z,9.49
2023-05-05T05:18:10.675Z,9.54
2023-05-05T05:20:39.563Z,9.58
2023-05-05T05:23:07.678Z,9.61
2023-05-05T05:25:38.065Z,9.63
2023-05-05T05:28:10.544Z,9.65
2023-05-05T05:30:43.774Z,9.68
2023-05-05T05:33:12.398Z,9.70
2023-05-05T05:35:40.639Z,9.75
2023-05-05T05:38:09.297Z,9.80
2023-05-05T05:40:37.427Z,9.83
2023-05-05T05:43:05.833Z,9.85
2023-05-05T05:45:34.308Z,9.90
2023-05-05T05:48:03.573Z,9.94
2023-05-05T05:50:32.495Z,10.01
2023-05-05T05:53:00.877Z,10.09
2023-05-05T05:55:29.371Z,10.16
2023-05-05T05:57:58.155Z,10.23
2023-05-05T06:00:27.234Z,10.31
2023-05-05T06:02:59.862Z,10.41
2023-05-05T06:05:31.456Z,10.48
2023-05-05T06:07:59.853Z,10.51
2023-05-05T06:10:28.690Z,10.59
2023-05-05T06:13:03.162Z,10.67
2023-05-05T06:15:31.946Z,10.79
2023-05-05T06:18:00.769Z,10.92
2023-05-05T06:20:29.041Z,11.05
2023-05-05T06:22:57.288Z,11.17
2023-05-05T06:25:26.495Z,11.29
2023-05-05T06:27:54.445Z,11.42
2023-05-05T06:30:22.366Z,11.55
2023-05-05T06:32:50.666Z,11.66
2023-05-05T06:35:18.630Z,11.77
2023-05-05T06:37:46.649Z,11.89
2023-05-05T06:40:15.094Z,12.04
2023-05-05T06:42:43.055Z,12.16
2023-05-05T06:45:12.790Z,12.29
2023-05-05T06:47:42.011Z,12.34
2023-05-05T06:50:10.587Z,12.31
2023-05-05T06:52:38.794Z,12.32
2023-05-05T06:55:07.664Z,12.16
2023-05-05T06:57:35.847Z,12.10
2023-05-05T07:00:06.062Z,12.20
2023-05-05T07:02:34.359Z,12.22
2023-05-05T07:05:03.323Z,12.26
2023-05-05T07:07:32.663Z,12.36
2023-05-05T07:10:01.181Z,12.44
2023-05-05T07:12:33.653Z,12.39
2023-05-05T07:15:09.351Z,12.42
2023-05-05T07:17:44.682Z,12.52
2023-05-05T07:20:13.095Z,12.61
2023-05-05T07:22:41.232Z,12.71
2023-05-05T07:25:09.484Z,12.83
2023-05-05T07:27:37.948Z,12.93
2023-05-05T07:30:11.159Z,13.04
2023-05-05T07:32:41.409Z,13.16
2023-05-05T07:35:09.640Z,13.25
2023-05-05T07:37:37.757Z,13.25
2023-05-05T07:40:07.153Z,13.17
2023-05-05T07:42:35.511Z,13.07
2023-05-05T07:45:04.896Z,13.02
2023-05-05T07:47:33.175Z,12.90
2023-05-05T07:50:01.792Z,12.96
2023-05-05T07:52:44.122Z,13.03
2023-05-05T07:55:14.517Z,12.95
2023-05-05T07:57:42.699Z,13.02
2023-05-05T08:00:13.418Z,13.05
2023-05-05T08:02:41.967Z,13.08
2023-05-05T08:05:10.332Z,13.12
2023-05-05T08:07:41.465Z,13.29
2023-05-05T08:10:13.198Z,13.29
2023-05-05T08:12:41.182Z,13.29
2023-05-05T08:15:10.147Z,13.38
2023-05-05T08:17:49.281Z,13.41
2023-05-05T08:20:19.402Z,13.57
2023-05-05T08:22:47.702Z,13.67
2023-05-05T08:25:15.779Z,13.75
2023-05-05T08:27:44.960Z,13.85
2023-05-05T08:30:13.592Z,13.86
2023-05-05T08:32:41.860Z,13.97
2023-05-05T08:35:10.960Z,14.10
2023-05-05T08:37:39.401Z,14.13
2023-05-05T08:40:08.609Z,14.21
2023-05-05T08:42:38.628Z,14.28
2023-05-05T08:45:09.738Z,14.35
2023-05-05T08:47:39.589Z,14.42
2023-05-05T08:50:10.543Z,14.39
2023-05-05T08:52:41.465Z,14.59
2023-05-05T08:55:27.458Z,14.71
2023-05-05T08:57:57.925Z,14.83
2023-05-05T09:00:27.327Z,14.93
2023-05-05T09:03:00.128Z,14.94
2023-05-05T09:05:28.438Z,15.08
2023-05-05T09:07:56.596Z,15.10
2023-05-05T09:10:26.320Z,15.21
2023-05-05T09:12:54.493Z,15.20
2023-05-05T09:15:22.763Z,15.35
2023-05-05T09:17:51.240Z,15.48
2023-05-05T09:20:19.415Z,15.67
2023-05-05T09:22:48.301Z,15.86
2023-05-05T09:25:18.529Z,16.06
2023-05-05T09:27:49.258Z,16.13
2023-05-05T09:30:23.404Z,16.22
2023-05-05T09:32:54.113Z,16.33
2023-05-05T09:35:23.506Z,16.11
2023-05-05T09:37:51.501Z,16.24
2023-05-05T09:40:20.784Z,16.38
2023-05-05T09:42:48.955Z,16.58
2023-05-05T09:45:19.780Z,16.83
2023-05-05T09:47:49.715Z,17.07
2023-05-05T09:50:19.431Z,17.28
2023-05-05T09:53:02.698Z,17.39
2023-05-05T09:55:33.591Z,17.46
2023-05-05T09:58:21.461Z,17.64
2023-05-05T10:00:50.209Z,17.81
2023-05-05T10:03:19.481Z,17.86
2023-05-05T10:05:50.755Z,17.98
2023-05-05T10:08:21.163Z,18.00
2023-05-05T10:10:53.659Z,17.91
2023-05-05T10:13:24.407Z,17.77
2023-05-05T10:15:55.367Z,17.65
2023-05-05T10:18:25.919Z,17.69
2023-05-05T10:20:59.183Z,17.83
2023-05-05T10:23:48.067Z,17.99
2023-05-05T10:26:19.940Z,17.98
2023-05-05T10:28:55.259Z,18.04
2023-05-05T10:31:37.339Z,18.14
2023-05-05T10:34:24.282Z,18.33
2023-05-05T10:36:55.269Z,18.42
2023-05-05T10:39:25.216Z,18.29
2023-05-05T10:41:53.773Z,18.35
2023-05-05T10:44:23.083Z,18.10
2023-05-05T10:46:51.386Z,18.18
2023-05-05T10:49:44.932Z,18.44
2023-05-05T10:52:43.513Z,18.52
2023-05-05T10:55:17.813Z,18.46
2023-05-05T10:57:46.823Z,18.48
2023-05-05T11:00:38.015Z,18.66
2023-05-05T11:03:18.257Z,18.76
2023-05-05T11:06:04.897Z,18.98
2023-05-05T11:08:33.861Z,19.01
2023-05-05T11:11:02.811Z,19.19
2023-05-05T11:13:31.873Z,19.39
2023-05-05T11:16:02.259Z,19.58
2023-05-05T11:18:36.071Z,19.80
2023-05-05T11:21:15.803Z,20.01
2023-05-05T11:23:49.584Z,20.01
2023-05-05T11:26:38.734Z,20.05
2023-05-05T11:29:06.954Z,20.04
2023-05-05T11:31:35.196Z,20.01
2023-05-05T11:34:28.365Z,20.22
2023-05-05T11:37:06.366Z,20.22
2023-05-05T11:39:56.045Z,20.34
2023-05-05T11:42:26.116Z,20.42
2023-05-05T11:44:55.235Z,20.44
2023-05-05T11:47:23.301Z,20.47
2023-05-05T11:49:51.382Z,20.59
2023-05-05T11:52:19.664Z,20.72
2023-05-05T11:54:49.070Z,20.76
2023-05-05T11:57:21.754Z,20.73
2023-05-05T12:00:09.206Z,20.67
2023-05-05T12:02:37.475Z,20.56
2023-05-05T12:05:06.278Z,20.57
2023-05-05T12:07:34.511Z,20.59
2023-05-05T12:10:02.897Z,20.68
2023-05-05T12:12:36.220Z,20.86
2023-05-05T12:15:05.550Z,20.96
2023-05-05T12:17:39.067Z,20.88
2023-05-05T12:20:08.917Z,20.95
2023-05-05T12:22:37.546Z,20.91
2023-05-05T12:25:08.077Z,20.64
2023-05-05T12:27:36.478Z,20.71
2023-05-05T12:30:13.020Z,20.72
2023-05-05T12:32:41.645Z,20.68
2023-05-05T12:35:10.933Z,20.76
2023-05-05T12:37:39.326Z,20.91
2023-05-05T12:40:09.053Z,20.96
2023-05-05T12:42:41.306Z,21.00
2023-05-05T12:45:19.721Z,21.15
2023-05-05T12:47:47.746Z,21.37
2023-05-05T12:50:29.951Z,21.20
2023-05-05T12:52:58.272Z,20.67
2023-05-05T12:55:40.169Z,20.45
2023-05-05T12:58:08.240Z,20.79
2023-05-05T13:00:36.842Z,20.78
2023-05-05T13:03:06.295Z,20.74
2023-05-05T13:05:41.083Z,20.63
2023-05-05T13:08:09.154Z,20.56
2023-05-05T13:10:37.303Z,20.47
2023-05-05T13:13:05.814Z,20.60
2023-05-05T13:15:34.197Z,20.64
2023-05-05T13:18:02.897Z,20.71
2023-05-05T13:20:31.123Z,20.77
2023-05-05T13:22:59.225Z,20.88
2023-05-05T13:25:27.266Z,20.81
2023-05-05T13:27:55.344Z,20.78
2023-05-05T13:30:23.415Z,20.51
2023-05-05T13:32:51.603Z,20.23
2023-05-05T13:35:19.766Z,20.16
2023-05-05T13:37:48.467Z,20.20
2023-05-05T13:40:16.497Z,20.04
2023-05-05T13:42:44.543Z,19.59
2023-05-05T13:45:14.179Z,19.76
2023-05-05T13:47:44.474Z,19.51
2023-05-05T13:50:12.707Z,19.55
2023-05-05T13:52:40.691Z,19.64
2023-05-05T13:55:09.872Z,19.77
2023-05-05T13:57:38.051Z,19.93
2023-05-05T14:00:06.944Z,20.10
2023-05-05T14:02:35.864Z,20.23
2023-05-05T14:05:04.331Z,20.32
2023-05-05T14:07:33.108Z,20.32
2023-05-05T14:10:01.268Z,20.30
2023-05-05T14:12:29.339Z,20.19
2023-05-05T14:14:57.508Z,20.23
2023-05-05T14:17:26.032Z,20.33
2023-05-05T14:19:54.068Z,20.45
2023-05-05T14:22:22.141Z,20.51
2023-05-05T14:24:50.416Z,20.55
2023-05-05T14:27:18.425Z,20.49
2023-05-05T14:29:46.555Z,20.58
2023-05-05T14:32:14.664Z,20.68
2023-05-05T14:34:42.960Z,20.77
2023-05-05T14:37:10.936Z,20.78
2023-05-05T14:39:38.885Z,20.87
2023-05-05T14:42:06.924Z,20.95
2023-05-05T14:44:35.001Z,20.99
2023-05-05T14:47:03.194Z,21.10
2023-05-05T14:49:31.342Z,21.22
2023-05-05T14:51:59.303Z,21.32
2023-05-05T14:54:28.844Z,21.17
2023-05-05T14:56:58.472Z,20.85
2023-05-05T14:59:27.725Z,20.58
2023-05-05T15:01:56.659Z,20.54
2023-05-05T15:04:24.897Z,20.47
2023-05-05T15:06:52.962Z,20.49
2023-05-05T15:09:21.034Z,20.56
2023-05-05T15:11:49.100Z,20.61
2023-05-05T15:14:17.094Z,20.42
2023-05-05T15:16:46.820Z,20.54
2023-05-05T15:19:14.851Z,20.59
2023-05-05T15:21:43.473Z,20.60
2023-05-05T15:24:11.609Z,20.55
2023-05-05T15:26:39.549Z,20.57
2023-05-05T15:29:07.481Z,20.62
2023-05-05T15:31:35.580Z,20.65
2023-05-05T15:34:03.689Z,20.68
2023-05-05T15:36:32.377Z,20.66
2023-05-05T15:39:00.455Z,20.69
2023-05-05T15:41:29.587Z,20.71
2023-05-05T15:43:58.233Z,20.71
2023-05-05T15:46:26.491Z,20.69
2023-05-05T15:48:54.893Z,20.52
2023-05-05T15:51:22.822Z,20.53
2023-05-05T15:53:52.420Z,20.50
2023-05-05T15:56:20.514Z,20.49
2023-05-05T15:58:48.605Z,20.52
2023-05-05T16:01:16.781Z,20.53
2023-05-05T16:03:44.916Z,20.53
2023-05-05T16:06:13.338Z,20.51
2023-05-05T16:08:41.501Z,20.43
2023-05-05T16:11:09.682Z,20.39
2023-05-05T16:13:39.400Z,20.29
2023-05-05T16:16:08.038Z,20.25
2023-05-05T16:18:36.272Z,20.24
2023-05-05T16:21:04.643Z,20.19
2023-05-05T16:23:33.116Z,20.17
2023-05-05T16:26:01.504Z,20.16
2023-05-05T16:28:30.604Z,20.15
2023-05-05T16:30:58.746Z,20.14
2023-05-05T16:33:27.480Z,20.14
2023-05-05T16:35:55.950Z,20.13
2023-05-05T16:38:24.101Z,19.94
2023-05-05T16:40:52.166Z,19.85
2023-05-05T16:43:20.256Z,19.79
2023-05-05T16:45:48.439Z,19.71
2023-05-05T16:48:18.554Z,19.63
2023-05-05T16:50:46.814Z,19.55
2023-05-05T16:53:14.892Z,19.49
2023-05-05T16:55:42.828Z,19.37
2023-05-05T16:58:10.830Z,19.22
2023-05-05T17:00:38.913Z,18.99
2023-05-05T17:03:07.067Z,18.78
2023-05-05T17:05:35.141Z,18.55
2023-05-05T17:08:03.939Z,18.49
2023-05-05T17:10:32.016Z,18.40
2023-05-05T17:13:00.084Z,18.28
2023-05-05T17:15:28.252Z,18.12
2023-05-05T17:17:56.385Z,17.96
2023-05-05T17:20:24.804Z,17.86
2023-05-05T17:22:52.889Z,17.79
2023-05-05T17:25:21.180Z,17.76
2023-05-05T17:27:49.227Z,17.73
2023-05-05T17:30:17.813Z,17.71
2023-05-05T17:32:47.442Z,17.68
2023-05-05T17:35:15.490Z,17.65
2023-05-05T17:37:43.775Z,17.61
2023-05-05T17:40:12.049Z,17.55
2023-05-05T17:42:40.828Z,17.48
2023-05-05T17:45:10.016Z,17.40
2023-05-05T17:47:38.221Z,17.31
2023-05-05T17:50:07.173Z,17.23
2023-05-05T17:52:35.171Z,17.16
2023-05-05T17:55:04.138Z,17.07
2023-05-05T17:57:32.012Z,16.99
2023-05-05T18:00:03.364Z,16.91
2023-05-05T18:02:40.717Z,16.84
2023-05-05T18:05:10.026Z,16.77
2023-05-05T18:07:38.730Z,16.70
2023-05-05T18:10:08.348Z,16.62
2023-05-05T18:12:37.003Z,16.51
2023-05-05T18:15:05.816Z,16.42
2023-05-05T18:17:33.837Z,16.33
2023-05-05T18:20:02.021Z,16.26
2023-05-05T18:22:30.155Z,16.20
2023-05-05T18:25:00.135Z,16.15
2023-05-05T18:27:29.167Z,16.09
2023-05-05T18:29:57.260Z,16.02
2023-05-05T18:32:25.423Z,15.94
2023-05-05T18:34:53.526Z,15.87
2023-05-05T18:37:21.558Z,15.80
2023-05-05T18:39:49.932Z,15.73
2023-05-05T18:42:18.108Z,15.67
2023-05-05T18:44:46.192Z,15.62
2023-05-05T18:47:14.270Z,15.56
2023-05-05T18:49:42.346Z,15.49
2023-05-05T18:52:10.279Z,15.42
2023-05-05T18:54:38.226Z,15.35
2023-05-05T18:57:06.244Z,15.27
2023-05-05T18:59:34.133Z,15.19
2023-05-05T19:02:03.029Z,15.11
2023-05-05T19:04:33.027Z,15.02
2023-05-05T19:07:01.080Z,14.96
2023-05-05T19:09:29.157Z,14.90
2023-05-05T19:11:57.226Z,14.82
2023-05-05T19:14:25.318Z,14.73
2023-05-05T19:16:55.959Z,14.65
2023-05-05T19:19:24.299Z,14.56
2023-05-05T19:21:52.681Z,14.48
2023-05-05T19:24:20.747Z,14.40
2023-05-05T19:26:49.038Z,14.34
2023-05-05T19:29:17.260Z,14.28
2023-05-05T19:31:45.398Z,14.22
2023-05-05T19:34:13.452Z,14.17
2023-05-05T19:36:41.398Z,14.12
2023-05-05T19:39:09.489Z,14.07
2023-05-05T19:41:37.579Z,14.01
2023-05-05T19:44:06.145Z,13.95
2023-05-05T19:46:34.306Z,13.87
2023-05-05T19:49:02.422Z,13.79
2023-05-05T19:51:31.633Z,13.70
2023-05-05T19:53:59.969Z,13.63
2023-05-05T19:56:28.150Z,13.57
2023-05-05T19:59:00.887Z,13.53
2023-05-05T20:01:29.469Z,13.51
2023-05-05T20:03:57.999Z,13.46
2023-05-05T20:06:27.089Z,13.41
2023-05-05T20:08:55.678Z,13.36
2023-05-05T20:11:25.996Z,13.34
2023-05-05T20:13:54.492Z,13.31
2023-05-05T20:16:22.558Z,13.26
2023-05-05T20:18:51.238Z,13.24
2023-05-05T20:21:19.714Z,13.22
2023-05-05T20:23:48.093Z,13.19
2023-05-05T20:26:16.485Z,13.16
2023-05-05T20:28:45.865Z,13.15
2023-05-05T20:31:14.994Z,13.16
2023-05-05T20:33:43.049Z,13.14
2023-05-05T20:36:11.760Z,13.10
2023-05-05T20:38:39.913Z,13.07
2023-05-05T20:41:07.981Z,13.02
2023-05-05T20:43:37.049Z,12.99
2023-05-05T20:46:05.250Z,12.95
2023-05-05T20:48:33.422Z,12.94
2023-05-05T20:51:04.123Z,12.90
2023-05-05T20:53:32.693Z,12.88
2023-05-05T20:56:01.022Z,12.85
2023-05-05T20:58:29.674Z,12.81
2023-05-05T21:00:58.516Z,12.78
2023-05-05T21:03:27.043Z,12.76
2023-05-05T21:05:55.127Z,12.74
2023-05-05T21:08:23.221Z,12.72
2023-05-05T21:10:51.313Z,12.70
2023-05-05T21:13:19.719Z,12.68
2023-05-05T21:15:47.761Z,12.67
2023-05-05T21:18:15.997Z,12.67
2023-05-05T21:20:43.984Z,12.67
2023-05-05T21:23:12.064Z,12.67
2023-05-05T21:25:40.331Z,12.68
2023-05-05T21:28:08.615Z,12.69
2023-05-05T21:30:36.688Z,12.71
2023-05-05T21:33:04.705Z,12.73
2023-05-05T21:35:32.790Z,12.75
2023-05-05T21:38:00.910Z,12.75
2023-05-05T21:40:28.972Z,12.77
2023-05-05T21:42:57.056Z,12.81
2023-05-05T21:45:25.224Z,12.87
2023-05-05T21:47:53.350Z,12.93
2023-05-05T21:50:21.372Z,12.97
2023-05-05T21:52:49.300Z,12.99
2023-05-05T21:55:17.269Z,13.03
2023-05-05T21:57:45.391Z,13.06
2023-05-05T22:00:16.963Z,12.98
2023-05-05T22:02:45.619Z,12.96
2023-05-05T22:05:13.990Z,12.93
2023-05-05T22:07:42.073Z,12.89
2023-05-05T22:10:10.882Z,12.84
2023-05-05T22:12:39.130Z,12.79
2023-05-05T22:15:08.153Z,12.76
2023-05-05T22:17:37.062Z,12.73
2023-05-05T22:20:06.026Z,12.71
2023-05-05T22:22:34.599Z,12.69
2023-05-05T22:25:02.659Z,12.68
2023-05-05T22:27:30.736Z,12.67
2023-05-05T22:29:58.911Z,12.63
2023-05-05T22:32:27.215Z,12.62
2023-05-05T22:34:55.480Z,12.60
2023-05-05T22:37:23.655Z,12.59
2023-05-05T22:39:51.705Z,12.59
2023-05-05T22:42:19.632Z,12.55
2023-05-05T22:44:47.717Z,12.52
2023-05-05T22:47:15.740Z,12.49
2023-05-05T22:49:43.955Z,12.46
2023-05-05T22:52:12.571Z,12.46
2023-05-05T22:54:40.652Z,12.47
2023-05-05T22:57:08.720Z,12.47
2023-05-05T22:59:36.791Z,12.48
2023-05-05T23:02:05.506Z,12.48
2023-05-05T23:04:33.676Z,12.49
2023-05-05T23:07:01.930Z,12.51
2023-05-05T23:09:29.897Z,12.51
2023-05-05T23:11:57.865Z,12.51
2023-05-05T23:14:26.365Z,12.52
2023-05-05T23:16:54.469Z,12.52
2023-05-05T23:19:22.712Z,12.53
2023-05-05T23:21:53.616Z,12.54
2023-05-05T23:24:22.425Z,12.55
2023-05-05T23:26:51.901Z,12.55
2023-05-05T23:29:21.036Z,12.55
2023-05-05T23:31:49.022Z,12.58
2023-05-05T23:34:17.037Z,12.59
2023-05-05T23:36:45.040Z,12.60
2023-05-05T23:39:13.113Z,12.63
2023-05-05T23:41:41.083Z,12.67
2023-05-05T23:44:09.153Z,12.70
2023-05-05T23:46:37.149Z,12.72
2023-05-05T23:49:05.300Z,12.73
2023-05-05T23:51:33.338Z,12.76
2023-05-05T23:54:01.241Z,12.79
2023-05-05T23:56:29.299Z,12.82
2023-05-05T23:58:57.285Z,12.86
